sensor_id;sensor_type;location;lat;lon;timestamp;pressure;altitude;pressure_sealevel;temperature;humidity
46394;BME280;32099;53.588;10.176;2023-05-12T00:01:10;101391.31;;;13.34;70.99
46394;BME280;32099;53.588;10.176;2023-05-12T00:03:36;101395.53;;;13.37;70.86
46394;BME280;32099;53.588;10.176;2023-05-12T00:06:02;101399.13;;;13.37;70.88
46394;BME280;32099;53.588;10.176;2023-05-12T00:08:28;101395.34;;;13.38;70.69
46394;BME280;32099;53.588;10.176;2023-05-12T00:10:53;101389.53;;;13.41;71.14
46394;BME280;32099;53.588;10.176;2023-05-12T00:13:19;101397.56;;;13.43;70.90
46394;BME280;32099;53.588;10.176;2023-05-12T00:15:47;101393.31;;;13.40;71.02
46394;BME280;32099;53.588;10.176;2023-05-12T00:18:13;101394.81;;;13.43;70.35
46394;BME280;32099;53.588;10.176;2023-05-12T00:20:38;101396.72;;;13.42;70.58
46394;BME280;32099;53.588;10.176;2023-05-12T00:23:04;101395.50;;;13.45;70.68
46394;BME280;32099;53.588;10.176;2023-05-12T00:25:29;101394.47;;;13.46;70.20
46394;BME280;32099;53.588;10.176;2023-05-12T00:27:54;101396.34;;;13.46;70.21
46394;BME280;32099;53.588;10.176;2023-05-12T00:30:20;101395.97;;;13.49;70.12
46394;BME280;32099;53.588;10.176;2023-05-12T00:32:45;101397.66;;;13.50;69.47
46394;BME280;32099;53.588;10.176;2023-05-12T00:35:10;101401.91;;;13.52;69.06
46394;BME280;32099;53.588;10.176;2023-05-12T00:37:35;101393.81;;;13.59;68.93
46394;BME280;32099;53.588;10.176;2023-05-12T00:40:01;101400.06;;;13.68;68.30
46394;BME280;32099;53.588;10.176;2023-05-12T00:42:27;101400.16;;;13.75;67.82
46394;BME280;32099;53.588;10.176;2023-05-12T00:44:52;101406.19;;;13.85;68.28
46394;BME280;32099;53.588;10.176;2023-05-12T00:47:17;101404.97;;;13.87;67.16
46394;BME280;32099;53.588;10.176;2023-05-12T00:49:44;101388.81;;;13.93;67.03
46394;BME280;32099;53.588;10.176;2023-05-12T00:52:10;101406.78;;;13.95;67.20
46394;BME280;32099;53.588;10.176;2023-05-12T00:54:35;101400.91;;;13.98;67.48
46394;BME280;32099;53.588;10.176;2023-05-12T00:57:02;101403.09;;;14.03;66.43
46394;BME280;32099;53.588;10.176;2023-05-12T00:59:27;101404.22;;;14.09;66.94
46394;BME280;32099;53.588;10.176;2023-05-12T01:01:53;101407.25;;;14.14;66.60
46394;BME280;32099;53.588;10.176;2023-05-12T01:04:19;101408.19;;;14.21;66.45
46394;BME280;32099;53.588;10.176;2023-05-12T01:06:58;101405.72;;;14.26;66.42
46394;BME280;32099;53.588;10.176;2023-05-12T01:09:33;101408.06;;;14.29;66.39
46394;BME280;32099;53.588;10.176;2023-05-12T01:11:59;101410.22;;;14.34;66.24
46394;BME280;32099;53.588;10.176;2023-05-12T01:14:24;101413.47;;;14.38;65.96
46394;BME280;32099;53.588;10.176;2023-05-12T01:16:50;101410.50;;;14.39;65.76
46394;BME280;32099;53.588;10.176;2023-05-12T01:19:29;101412.88;;;14.42;64.87
46394;BME280;32099;53.588;10.176;2023-05-12T01:22:08;101411.44;;;14.46;65.63
46394;BME280;32099;53.588;10.176;2023-05-12T01:24:36;101412.75;;;14.50;65.00
46394;BME280;32099;53.588;10.176;2023-05-12T01:27:09;101420.13;;;14.50;65.49
46394;BME280;32099;53.588;10.176;2023-05-12T01:29:34;101422.50;;;14.53;65.03
46394;BME280;32099;53.588;10.176;2023-05-12T01:32:00;101415.75;;;14.56;65.61
46394;BME280;32099;53.588;10.176;2023-05-12T01:34:26;101425.53;;;14.58;64.87
46394;BME280;32099;53.588;10.176;2023-05-12T01:36:52;101426.34;;;14.59;65.31
46394;BME280;32099;53.588;10.176;2023-05-12T01:39:17;101426.19;;;14.60;64.54
46394;BME280;32099;53.588;10.176;2023-05-12T01:41:42;101427.69;;;14.63;64.95
46394;BME280;32099;53.588;10.176;2023-05-12T01:44:08;101431.25;;;14.63;64.91
46394;BME280;32099;53.588;10.176;2023-05-12T01:46:33;101431.25;;;14.63;63.97
46394;BME280;32099;53.588;10.176;2023-05-12T01:48:58;101429.88;;;14.68;64.24
46394;BME280;32099;53.588;10.176;2023-05-12T01:51:23;101436.69;;;14.72;64.72
46394;BME280;32099;53.588;10.176;2023-05-12T01:53:49;101438.56;;;14.71;64.86
46394;BME280;32099;53.588;10.176;2023-05-12T01:56:14;101429.50;;;14.71;64.45
46394;BME280;32099;53.588;10.176;2023-05-12T01:58:39;101441.31;;;14.71;64.39
46394;BME280;32099;53.588;10.176;2023-05-12T02:01:04;101439.44;;;14.72;64.70
46394;BME280;32099;53.588;10.176;2023-05-12T02:03:30;101443.22;;;14.71;63.92
46394;BME280;32099;53.588;10.176;2023-05-12T02:05:55;101436.69;;;14.72;64.03
46394;BME280;32099;53.588;10.176;2023-05-12T02:08:20;101446.41;;;14.74;63.01
46394;BME280;32099;53.588;10.176;2023-05-12T02:10:46;101450.09;;;14.81;63.57
46394;BME280;32099;53.588;10.176;2023-05-12T02:13:11;101452.25;;;14.86;62.94
46394;BME280;32099;53.588;10.176;2023-05-12T02:15:36;101444.22;;;14.85;63.30
46394;BME280;32099;53.588;10.176;2023-05-12T02:18:02;101454.41;;;14.91;63.39
46394;BME280;32099;53.588;10.176;2023-05-12T02:20:28;101459.88;;;14.91;63.18
46394;BME280;32099;53.588;10.176;2023-05-12T02:22:53;101455.66;;;14.88;62.60
46394;BME280;32099;53.588;10.176;2023-05-12T02:25:19;101454.41;;;14.91;63.26
46394;BME280;32099;53.588;10.176;2023-05-12T02:27:45;101458.69;;;14.93;62.64
46394;BME280;32099;53.588;10.176;2023-05-12T02:30:10;101459.31;;;14.95;63.12
46394;BME280;32099;53.588;10.176;2023-05-12T02:32:35;101462.72;;;14.98;63.11
46394;BME280;32099;53.588;10.176;2023-05-12T02:35:01;101461.50;;;15.00;62.89
46394;BME280;32099;53.588;10.176;2023-05-12T02:37:26;101462.31;;;15.01;63.86
46394;BME280;32099;53.588;10.176;2023-05-12T02:39:52;101466.78;;;15.02;62.10
46394;BME280;32099;53.588;10.176;2023-05-12T02:42:17;101463.44;;;15.06;62.74
46394;BME280;32099;53.588;10.176;2023-05-12T02:44:42;101467.31;;;15.12;62.32
46394;BME280;32099;53.588;10.176;2023-05-12T02:47:07;101459.50;;;15.16;61.70
46394;BME280;32099;53.588;10.176;2023-05-12T02:49:33;101451.47;;;15.14;61.68
46394;BME280;32099;53.588;10.176;2023-05-12T02:51:58;101457.88;;;15.21;61.82
46394;BME280;32099;53.588;10.176;2023-05-12T02:54:23;101456.00;;;15.22;62.02
46394;BME280;32099;53.588;10.176;2023-05-12T02:56:48;101457.69;;;15.23;62.21
46394;BME280;32099;53.588;10.176;2023-05-12T02:59:14;101458.75;;;15.22;61.78
46394;BME280;32099;53.588;10.176;2023-05-12T03:01:39;101456.84;;;15.22;62.07
46394;BME280;32099;53.588;10.176;2023-05-12T03:04:04;101464.03;;;15.23;61.96
46394;BME280;32099;53.588;10.176;2023-05-12T03:06:30;101458.53;;;15.23;62.61
46394;BME280;32099;53.588;10.176;2023-05-12T03:08:55;101464.03;;;15.23;62.33
46394;BME280;32099;53.588;10.176;2023-05-12T03:11:21;101465.72;;;15.24;62.32
46394;BME280;32099;53.588;10.176;2023-05-12T03:13:46;101462.59;;;15.27;62.13
46394;BME280;32099;53.588;10.176;2023-05-12T03:16:12;101462.41;;;15.29;62.22
46394;BME280;32099;53.588;10.176;2023-05-12T03:18:38;101462.59;;;15.27;62.64
46394;BME280;32099;53.588;10.176;2023-05-12T03:21:03;101459.59;;;15.22;62.92
46394;BME280;32099;53.588;10.176;2023-05-12T03:23:29;101463.19;;;15.23;62.29
46394;BME280;32099;53.588;10.176;2023-05-12T03:25:55;101464.03;;;15.23;62.13
46394;BME280;32099;53.588;10.176;2023-05-12T03:28:20;101459.78;;;15.21;62.90
46394;BME280;32099;53.588;10.176;2023-05-12T03:30:48;101476.28;;;15.21;63.20
46394;BME280;32099;53.588;10.176;2023-05-12T03:33:13;101471.63;;;15.21;62.24
46394;BME280;32099;53.588;10.176;2023-05-12T03:35:38;101471.22;;;15.24;62.26
46394;BME280;32099;53.588;10.176;2023-05-12T03:38:04;101466.13;;;15.21;62.74
46394;BME280;32099;53.588;10.176;2023-05-12T03:40:29;101476.34;;;15.27;62.09
46394;BME280;32099;53.588;10.176;2023-05-12T03:42:55;101467.22;;;15.27;61.58
46394;BME280;32099;53.588;10.176;2023-05-12T03:45:20;101474.88;;;15.32;62.49
46394;BME280;32099;53.588;10.176;2023-05-12T03:47:45;101475.09;;;15.30;62.18
46394;BME280;32099;53.588;10.176;2023-05-12T03:50:11;101479.75;;;15.30;62.22
46394;BME280;32099;53.588;10.176;2023-05-12T03:52:36;101472.72;;;15.27;62.79
46394;BME280;32099;53.588;10.176;2023-05-12T03:55:04;101482.44;;;15.23;62.01
46394;BME280;32099;53.588;10.176;2023-05-12T03:57:30;101493.00;;;15.26;62.61
46394;BME280;32099;53.588;10.176;2023-05-12T03:59:56;101483.94;;;15.25;62.12
46394;BME280;32099;53.588;10.176;2023-05-12T04:02:21;101491.13;;;15.26;62.96
46394;BME280;32099;53.588;10.176;2023-05-12T04:04:46;101482.22;;;15.24;62.45
46394;BME280;32099;53.588;10.176;2023-05-12T04:07:11;101487.06;;;15.22;62.74
46394;BME280;32099;53.588;10.176;2023-05-12T04:09:37;101486.00;;;15.23;62.92
46394;BME280;32099;53.588;10.176;2023-05-12T04:12:02;101484.50;;;15.21;62.78
46394;BME280;32099;53.588;10.176;2023-05-12T04:14:28;101494.91;;;15.25;63.20
46394;BME280;32099;53.588;10.176;2023-05-12T04:16:53;101496.78;;;15.25;62.44
46394;BME280;32099;53.588;10.176;2023-05-12T04:19:18;101498.25;;;15.21;61.76
46394;BME280;32099;53.588;10.176;2023-05-12T04:21:43;101494.91;;;15.25;61.78
46394;BME280;32099;53.588;10.176;2023-05-12T04:24:09;101503.41;;;15.31;62.50
46394;BME280;32099;53.588;10.176;2023-05-12T04:26:35;101496.88;;;15.32;62.55
46394;BME280;32099;53.588;10.176;2023-05-12T04:29:00;101500.47;;;15.32;61.81
46394;BME280;32099;53.588;10.176;2023-05-12T04:31:25;101507.47;;;15.35;61.34
46394;BME280;32099;53.588;10.176;2023-05-12T04:33:51;101515.78;;;15.41;62.33
46394;BME280;32099;53.588;10.176;2023-05-12T04:36:16;101514.53;;;15.44;60.94
46394;BME280;32099;53.588;10.176;2023-05-12T04:38:41;101517.94;;;15.46;61.86
46394;BME280;32099;53.588;10.176;2023-05-12T04:41:07;101525.97;;;15.48;62.00
46394;BME280;32099;53.588;10.176;2023-05-12T04:43:33;101519.25;;;15.50;61.85
46394;BME280;32099;53.588;10.176;2023-05-12T04:45:58;101526.03;;;15.54;61.37
46394;BME280;32099;53.588;10.176;2023-05-12T04:48:25;101520.16;;;15.57;61.20
46394;BME280;32099;53.588;10.176;2023-05-12T04:50:50;101527.63;;;15.64;61.50
46394;BME280;32099;53.588;10.176;2023-05-12T04:53:15;101529.28;;;15.65;60.64
46394;BME280;32099;53.588;10.176;2023-05-12T04:55:41;101530.81;;;15.67;60.68
46394;BME280;32099;53.588;10.176;2023-05-12T04:58:09;101534.63;;;15.66;61.09
46394;BME280;32099;53.588;10.176;2023-05-12T05:00:35;101541.81;;;15.67;61.28
46394;BME280;32099;53.588;10.176;2023-05-12T05:03:00;101540.78;;;15.68;61.28
46394;BME280;32099;53.588;10.176;2023-05-12T05:05:26;101547.13;;;15.69;60.14
46394;BME280;32099;53.588;10.176;2023-05-12T05:07:51;101541.22;;;15.72;60.59
46394;BME280;32099;53.588;10.176;2023-05-12T05:10:16;101544.44;;;15.76;61.32
46394;BME280;32099;53.588;10.176;2023-05-12T05:12:42;101544.88;;;15.79;61.02
46394;BME280;32099;53.588;10.176;2023-05-12T05:15:07;101551.50;;;15.85;60.21
46394;BME280;32099;53.588;10.176;2023-05-12T05:17:35;101564.03;;;15.87;60.72
46394;BME280;32099;53.588;10.176;2023-05-12T05:20:00;101566.38;;;15.91;61.06
46394;BME280;32099;53.588;10.176;2023-05-12T05:22:26;101562.19;;;15.95;59.83
46394;BME280;32099;53.588;10.176;2023-05-12T05:24:51;101564.78;;;16.03;59.75
46394;BME280;32099;53.588;10.176;2023-05-12T05:27:16;101554.88;;;16.09;60.45
46394;BME280;32099;53.588;10.176;2023-05-12T05:29:41;101565.94;;;16.15;58.99
46394;BME280;32099;53.588;10.176;2023-05-12T05:32:07;101559.63;;;16.22;60.00
46394;BME280;32099;53.588;10.176;2023-05-12T05:34:32;101567.06;;;16.28;58.93
46394;BME280;32099;53.588;10.176;2023-05-12T05:36:57;101569.88;;;16.34;59.14
46394;BME280;32099;53.588;10.176;2023-05-12T05:39:23;101572.47;;;16.43;59.50
46394;BME280;32099;53.588;10.176;2023-05-12T05:41:49;101579.72;;;16.50;58.80
46394;BME280;32099;53.588;10.176;2023-05-12T05:44:14;101568.53;;;16.59;58.69
46394;BME280;32099;53.588;10.176;2023-05-12T05:46:39;101572.81;;;16.68;58.81
46394;BME280;32099;53.588;10.176;2023-05-12T05:49:05;101575.19;;;16.78;58.65
46394;BME280;32099;53.588;10.176;2023-05-12T05:51:30;101583.28;;;16.86;58.40
46394;BME280;32099;53.588;10.176;2023-05-12T05:53:57;101583.75;;;16.90;57.66
46394;BME280;32099;53.588;10.176;2023-05-12T05:56:22;101580.63;;;17.00;58.56
46394;BME280;32099;53.588;10.176;2023-05-12T05:58:48;101597.00;;;17.08;58.56
46394;BME280;32099;53.588;10.176;2023-05-12T06:01:13;101595.94;;;17.16;58.30
46394;BME280;32099;53.588;10.176;2023-05-12T06:03:39;101596.84;;;17.23;58.02
46394;BME280;32099;53.588;10.176;2023-05-12T06:06:04;101603.19;;;17.30;57.12
46394;BME280;32099;53.588;10.176;2023-05-12T06:08:30;101593.47;;;17.34;57.18
46394;BME280;32099;53.588;10.176;2023-05-12T06:10:56;101600.72;;;17.42;57.46
46394;BME280;32099;53.588;10.176;2023-05-12T06:13:21;101602.63;;;17.48;55.85
46394;BME280;32099;53.588;10.176;2023-05-12T06:15:46;101607.72;;;17.51;56.74
46394;BME280;32099;53.588;10.176;2023-05-12T06:18:11;101609.84;;;17.56;57.32
46394;BME280;32099;53.588;10.176;2023-05-12T06:20:37;101607.75;;;17.65;56.11
46394;BME280;32099;53.588;10.176;2023-05-12T06:23:02;101617.53;;;17.74;57.11
46394;BME280;32099;53.588;10.176;2023-05-12T06:25:27;101621.13;;;17.81;56.16
46394;BME280;32099;53.588;10.176;2023-05-12T06:27:52;101622.84;;;17.89;55.07
46394;BME280;32099;53.588;10.176;2023-05-12T06:30:18;101615.03;;;17.99;56.14
46394;BME280;32099;53.588;10.176;2023-05-12T06:32:43;101627.13;;;18.05;54.45
46394;BME280;32099;53.588;10.176;2023-05-12T06:35:08;101614.81;;;18.14;54.92
46394;BME280;32099;53.588;10.176;2023-05-12T06:37:33;101627.78;;;18.21;54.71
46394;BME280;32099;53.588;10.176;2023-05-12T06:39:59;101629.91;;;18.25;55.82
46394;BME280;32099;53.588;10.176;2023-05-12T06:42:24;101646.00;;;18.35;55.91
46394;BME280;32099;53.588;10.176;2023-05-12T06:44:50;101644.53;;;18.46;55.54
46394;BME280;32099;53.588;10.176;2023-05-12T06:47:15;101643.47;;;18.54;55.08
46394;BME280;32099;53.588;10.176;2023-05-12T06:49:41;101643.44;;;18.60;54.39
46394;BME280;32099;53.588;10.176;2023-05-12T06:52:06;101641.72;;;18.73;55.09
46394;BME280;32099;53.588;10.176;2023-05-12T06:54:31;101644.47;;;18.86;55.70
46394;BME280;32099;53.588;10.176;2023-05-12T06:56:57;101642.50;;;19.07;52.47
46394;BME280;32099;53.588;10.176;2023-05-12T06:59:22;101630.09;;;19.23;54.92
46394;BME280;32099;53.588;10.176;2023-05-12T07:01:48;101642.34;;;19.40;53.65
46394;BME280;32099;53.588;10.176;2023-05-12T07:04:13;101637.81;;;19.53;54.37
46394;BME280;32099;53.588;10.176;2023-05-12T07:06:38;101642.84;;;19.69;53.12
46394;BME280;32099;53.588;10.176;2023-05-12T07:09:03;101643.34;;;19.85;51.65
46394;BME280;32099;53.588;10.176;2023-05-12T07:11:29;101638.88;;;19.91;51.34
46394;BME280;32099;53.588;10.176;2023-05-12T07:13:54;101639.31;;;19.94;50.83
46394;BME280;32099;53.588;10.176;2023-05-12T07:16:20;101643.97;;;19.94;51.34
46394;BME280;32099;53.588;10.176;2023-05-12T07:18:45;101651.66;;;19.85;47.37
46394;BME280;32099;53.588;10.176;2023-05-12T07:21:10;101647.84;;;19.86;48.48
46394;BME280;32099;53.588;10.176;2023-05-12T07:23:37;101655.94;;;19.87;48.44
46394;BME280;32099;53.588;10.176;2023-05-12T07:26:03;101663.19;;;19.88;51.13
46394;BME280;32099;53.588;10.176;2023-05-12T07:28:30;101652.47;;;19.99;51.35
46394;BME280;32099;53.588;10.176;2023-05-12T07:30:59;101661.50;;;20.13;50.41
46394;BME280;32099;53.588;10.176;2023-05-12T07:33:24;101653.09;;;20.26;50.79
46394;BME280;32099;53.588;10.176;2023-05-12T07:35:50;101655.16;;;20.56;49.69
46394;BME280;32099;53.588;10.176;2023-05-12T07:38:15;101658.19;;;20.99;49.57
46394;BME280;32099;53.588;10.176;2023-05-12T07:40:41;101660.84;;;21.24;49.73
46394;BME280;32099;53.588;10.176;2023-05-12T07:43:07;101665.66;;;21.47;50.10
46394;BME280;32099;53.588;10.176;2023-05-12T07:45:32;101660.25;;;21.52;48.81
46394;BME280;32099;53.588;10.176;2023-05-12T07:47:57;101662.09;;;21.58;48.64
46394;BME280;32099;53.588;10.176;2023-05-12T07:50:22;101668.56;;;21.71;48.88
46394;BME280;32099;53.588;10.176;2023-05-12T07:52:48;101676.25;;;21.87;47.91
46394;BME280;32099;53.588;10.176;2023-05-12T07:55:15;101676.53;;;22.10;49.84
46394;BME280;32099;53.588;10.176;2023-05-12T07:57:41;101679.84;;;22.30;47.43
46394;BME280;32099;53.588;10.176;2023-05-12T08:00:07;101679.59;;;22.32;45.62
46394;BME280;32099;53.588;10.176;2023-05-12T08:02:33;101678.19;;;22.53;48.63
46394;BME280;32099;53.588;10.176;2023-05-12T08:04:58;101670.22;;;22.69;47.42
46394;BME280;32099;53.588;10.176;2023-05-12T08:07:24;101666.69;;;22.73;46.59
46394;BME280;32099;53.588;10.176;2023-05-12T08:09:49;101674.91;;;22.80;46.45
46394;BME280;32099;53.588;10.176;2023-05-12T08:12:14;101665.97;;;22.78;46.48
46394;BME280;32099;53.588;10.176;2023-05-12T08:14:40;101673.00;;;22.80;47.38
46394;BME280;32099;53.588;10.176;2023-05-12T08:17:05;101671.75;;;23.00;46.99
46394;BME280;32099;53.588;10.176;2023-05-12T08:19:30;101678.13;;;23.24;47.65
46394;BME280;32099;53.588;10.176;2023-05-12T08:21:56;101680.56;;;23.62;46.25
46394;BME280;32099;53.588;10.176;2023-05-12T08:24:21;101675.13;;;23.84;44.75
46394;BME280;32099;53.588;10.176;2023-05-12T08:26:46;101672.09;;;23.85;40.07
46394;BME280;32099;53.588;10.176;2023-05-12T08:29:11;101678.84;;;23.90;44.24
46394;BME280;32099;53.588;10.176;2023-05-12T08:31:37;101677.88;;;23.96;44.43
46394;BME280;32099;53.588;10.176;2023-05-12T08:34:02;101669.31;;;24.31;45.18
46394;BME280;32099;53.588;10.176;2023-05-12T08:36:27;101672.06;;;24.65;43.80
46394;BME280;32099;53.588;10.176;2023-05-12T08:38:53;101677.63;;;24.83;40.10
46394;BME280;32099;53.588;10.176;2023-05-12T08:41:24;101681.81;;;25.02;42.68
46394;BME280;32099;53.588;10.176;2023-05-12T08:44:01;101676.69;;;25.16;41.52
46394;BME280;32099;53.588;10.176;2023-05-12T08:46:26;101678.88;;;25.36;41.26
46394;BME280;32099;53.588;10.176;2023-05-12T08:48:52;101669.56;;;25.48;43.52
46394;BME280;32099;53.588;10.176;2023-05-12T08:51:19;101673.69;;;25.67;40.71
46394;BME280;32099;53.588;10.176;2023-05-12T08:53:46;101668.63;;;25.92;41.35
46394;BME280;32099;53.588;10.176;2023-05-12T08:56:13;101668.44;;;26.03;43.03
46394;BME280;32099;53.588;10.176;2023-05-12T08:58:43;101673.03;;;26.10;39.82
46394;BME280;32099;53.588;10.176;2023-05-12T09:01:10;101675.53;;;26.11;35.25
46394;BME280;32099;53.588;10.176;2023-05-12T09:03:36;101670.91;;;26.22;39.69
46394;BME280;32099;53.588;10.176;2023-05-12T09:06:01;101668.19;;;26.38;37.74
46394;BME280;32099;53.588;10.176;2023-05-12T09:08:29;101669.31;;;26.37;38.67
46394;BME280;32099;53.588;10.176;2023-05-12T09:10:57;101672.31;;;26.25;38.29
46394;BME280;32099;53.588;10.176;2023-05-12T09:16:12;101668.56;;;26.46;37.12
46394;BME280;32099;53.588;10.176;2023-05-12T09:21:16;101674.69;;;26.43;35.54
46394;BME280;32099;53.588;10.176;2023-05-12T09:23:58;101669.00;;;26.33;34.90
46394;BME280;32099;53.588;10.176;2023-05-12T09:26:44;101673.41;;;26.24;38.26
46394;BME280;32099;53.588;10.176;2023-05-12T09:29:12;101671.16;;;26.21;37.11
46394;BME280;32099;53.588;10.176;2023-05-12T09:31:38;101667.38;;;26.37;36.11
46394;BME280;32099;53.588;10.176;2023-05-12T09:34:07;101667.16;;;26.44;34.20
46394;BME280;32099;53.588;10.176;2023-05-12T09:36:33;101676.59;;;26.38;36.38
46394;BME280;32099;53.588;10.176;2023-05-12T09:41:25;101678.69;;;26.20;33.54
46394;BME280;32099;53.588;10.176;2023-05-12T09:43:53;101673.06;;;26.15;34.44
46394;BME280;32099;53.588;10.176;2023-05-12T09:46:19;101670.44;;;26.08;32.32
46394;BME280;32099;53.588;10.176;2023-05-12T09:48:45;101667.75;;;26.18;37.53
46394;BME280;32099;53.588;10.176;2023-05-12T09:51:14;101669.59;;;26.40;33.63
46394;BME280;32099;53.588;10.176;2023-05-12T09:53:41;101678.13;;;26.56;38.22
46394;BME280;32099;53.588;10.176;2023-05-12T09:56:08;101666.50;;;26.74;33.02
46394;BME280;32099;53.588;10.176;2023-05-12T09:58:36;101670.50;;;26.84;33.43
46394;BME280;32099;53.588;10.176;2023-05-12T10:01:05;101666.03;;;26.88;36.45
46394;BME280;32099;53.588;10.176;2023-05-12T10:03:32;101658.88;;;27.07;36.85
46394;BME280;32099;53.588;10.176;2023-05-12T10:05:59;101671.25;;;26.74;36.92
46394;BME280;32099;53.588;10.176;2023-05-12T10:08:29;101665.53;;;26.15;35.86
46394;BME280;32099;53.588;10.176;2023-05-12T10:10:58;101669.47;;;25.65;37.54
46394;BME280;32099;53.588;10.176;2023-05-12T10:13:27;101668.13;;;25.23;36.10
46394;BME280;32099;53.588;10.176;2023-05-12T10:15:54;101667.81;;;24.80;36.45
46394;BME280;32099;53.588;10.176;2023-05-12T10:18:20;101656.28;;;24.54;39.05
46394;BME280;32099;53.588;10.176;2023-05-12T10:20:46;101663.44;;;24.84;37.68
46394;BME280;32099;53.588;10.176;2023-05-12T10:23:12;101667.66;;;25.31;35.75
46394;BME280;32099;53.588;10.176;2023-05-12T10:25:42;101656.31;;;25.60;33.23
46394;BME280;32099;53.588;10.176;2023-05-12T10:28:08;101667.09;;;25.79;33.73
46394;BME280;32099;53.588;10.176;2023-05-12T10:30:35;101668.66;;;25.64;33.36
46394;BME280;32099;53.588;10.176;2023-05-12T10:33:02;101673.63;;;25.40;36.31
46394;BME280;32099;53.588;10.176;2023-05-12T10:35:31;101669.88;;;25.07;33.54
46394;BME280;32099;53.588;10.176;2023-05-12T10:38:01;101674.63;;;25.06;36.57
46394;BME280;32099;53.588;10.176;2023-05-12T10:40:30;101666.44;;;25.22;36.49
46394;BME280;32099;53.588;10.176;2023-05-12T10:42:56;101661.19;;;25.48;34.89
46394;BME280;32099;53.588;10.176;2023-05-12T10:45:23;101677.16;;;25.52;32.00
46394;BME280;32099;53.588;10.176;2023-05-12T10:47:49;101659.75;;;25.23;34.53
46394;BME280;32099;53.588;10.176;2023-05-12T10:50:24;101665.00;;;24.97;34.62
46394;BME280;32099;53.588;10.176;2023-05-12T10:52:54;101670.50;;;24.92;36.00
46394;BME280;32099;53.588;10.176;2023-05-12T10:55:32;101658.91;;;25.00;34.96
46394;BME280;32099;53.588;10.176;2023-05-12T10:58:05;101662.59;;;25.06;33.28
46394;BME280;32099;53.588;10.176;2023-05-12T11:00:41;101665.09;;;25.24;35.59
46394;BME280;32099;53.588;10.176;2023-05-12T11:03:10;101660.56;;;25.40;34.87
46394;BME280;32099;53.588;10.176;2023-05-12T11:05:36;101658.81;;;25.62;34.33
46394;BME280;32099;53.588;10.176;2023-05-12T11:08:02;101666.06;;;25.85;36.16
46394;BME280;32099;53.588;10.176;2023-05-12T11:10:27;101648.28;;;25.96;35.18
46394;BME280;32099;53.588;10.176;2023-05-12T11:12:53;101667.78;;;25.91;36.19
46394;BME280;32099;53.588;10.176;2023-05-12T11:15:18;101664.38;;;25.84;33.12
46394;BME280;32099;53.588;10.176;2023-05-12T11:17:45;101662.75;;;25.88;35.16
46394;BME280;32099;53.588;10.176;2023-05-12T11:20:20;101660.50;;;25.90;35.93
46394;BME280;32099;53.588;10.176;2023-05-12T11:22:46;101656.28;;;25.87;33.87
46394;BME280;32099;53.588;10.176;2023-05-12T11:25:12;101653.69;;;25.76;34.40
46394;BME280;32099;53.588;10.176;2023-05-12T11:27:38;101665.50;;;25.61;35.19
46394;BME280;32099;53.588;10.176;2023-05-12T11:30:06;101667.88;;;25.47;36.76
46394;BME280;32099;53.588;10.176;2023-05-12T11:32:34;101658.41;;;25.48;37.40
46394;BME280;32099;53.588;10.176;2023-05-12T11:35:07;101662.09;;;25.53;34.15
46394;BME280;32099;53.588;10.176;2023-05-12T11:37:39;101670.56;;;25.64;31.11
46394;BME280;32099;53.588;10.176;2023-05-12T11:40:11;101664.06;;;25.80;35.59
46394;BME280;32099;53.588;10.176;2023-05-12T11:42:47;101658.94;;;25.99;36.17
46394;BME280;32099;53.588;10.176;2023-05-12T11:45:18;101667.47;;;26.15;33.81
46394;BME280;32099;53.588;10.176;2023-05-12T11:47:48;101664.16;;;26.23;34.58
46394;BME280;32099;53.588;10.176;2023-05-12T11:50:20;101673.09;;;26.20;33.95
46394;BME280;32099;53.588;10.176;2023-05-12T11:52:47;101676.59;;;26.05;33.51
46394;BME280;32099;53.588;10.176;2023-05-12T11:55:17;101676.63;;;25.83;34.84
46394;BME280;32099;53.588;10.176;2023-05-12T11:57:53;101670.84;;;25.62;31.37
46394;BME280;32099;53.588;10.176;2023-05-12T12:00:25;101675.44;;;25.74;34.43
46394;BME280;32099;53.588;10.176;2023-05-12T12:02:51;101684.19;;;25.82;32.01
46394;BME280;32099;53.588;10.176;2023-05-12T12:05:17;101690.44;;;25.67;29.97
46394;BME280;32099;53.588;10.176;2023-05-12T12:07:44;101692.16;;;25.46;32.77
46394;BME280;32099;53.588;10.176;2023-05-12T12:10:14;101674.56;;;25.46;34.67
46394;BME280;32099;53.588;10.176;2023-05-12T12:12:40;101675.06;;;25.65;32.52
46394;BME280;32099;53.588;10.176;2023-05-12T12:15:07;101679.06;;;25.74;34.19
46394;BME280;32099;53.588;10.176;2023-05-12T12:17:33;101672.75;;;25.84;34.89
46394;BME280;32099;53.588;10.176;2023-05-12T12:19:58;101665.03;;;25.96;31.47
46394;BME280;32099;53.588;10.176;2023-05-12T12:22:23;101666.53;;;26.09;34.06
46394;BME280;32099;53.588;10.176;2023-05-12T12:24:49;101670.13;;;26.32;31.20
46394;BME280;32099;53.588;10.176;2023-05-12T12:27:14;101672.69;;;26.39;31.83
46394;BME280;32099;53.588;10.176;2023-05-12T12:29:39;101663.50;;;26.43;33.69
46394;BME280;32099;53.588;10.176;2023-05-12T12:32:05;101668.84;;;26.45;33.27
46394;BME280;32099;53.588;10.176;2023-05-12T12:34:30;101673.88;;;26.48;31.30
46394;BME280;32099;53.588;10.176;2023-05-12T12:36:55;101674.97;;;26.47;35.12
46394;BME280;32099;53.588;10.176;2023-05-12T12:39:21;101672.28;;;26.57;34.72
46394;BME280;32099;53.588;10.176;2023-05-12T12:41:47;101674.56;;;26.66;33.55
46394;BME280;32099;53.588;10.176;2023-05-12T12:44:12;101672.06;;;26.69;33.84